Time;durP1;ratioP1;P1;durP2;ratioP2;P2;SDS_P1;SDS_P2;PMS_P1;PMS_P2;Temp;Humidity;BMP_temperature;BMP_pressure;BME280_temperature;BME280_humidity;BME280_pressure;Samples;Min_cycle;Max_cycle;Signal;HPM_P1;HPM_P2
2022/04/01 00:00:35;;;;;;;6.50;6.00;;;;;21.00;99007.00;;;;2078420;28;20290;-47
2022/04/01 00:01:35;;;;;;;6.63;6.13;;;;;21.00;99023.00;;;;2078456;28;20985;-47
2022/04/01 00:02:36;;;;;;;6.40;6.00;;;;;21.00;99016.00;;;;2078505;28;20223;-47
2022/04/01 00:03:37;;;;;;;6.10;5.60;;;;;21.00;99013.00;;;;2074993;28;20236;-47
2022/04/01 00:04:39;;;;;;;6.27;5.77;;;;;21.00;99019.00;;;;2070098;28;20453;-47
2022/04/01 00:05:39;;;;;;;5.95;5.55;;;;;21.00;99021.00;;;;2074028;28;20217;-47
2022/04/01 00:06:40;;;;;;;6.23;5.73;;;;;21.00;99022.00;;;;2078859;28;20262;-47
2022/04/01 00:07:40;;;;;;;6.60;6.10;;;;;21.00;99022.00;;;;2078668;28;20213;-47
2022/04/01 00:08:40;;;;;;;6.70;6.10;;;;;21.00;99023.00;;;;2079009;28;20655;-47
2022/04/01 00:09:41;;;;;;;5.90;5.50;;;;;21.00;99021.00;;;;2078772;28;20244;-47
2022/04/01 00:10:41;;;;;;;7.17;5.87;;;;;21.00;99017.00;;;;2078730;28;20213;-47
2022/04/01 00:11:41;;;;;;;5.87;5.37;;;;;21.00;99021.00;;;;2078896;28;20217;-46
2022/04/01 00:12:43;;;;;;;5.70;5.30;;;;;21.00;99024.00;;;;2079068;28;20304;-47
2022/04/01 00:13:43;;;;;;;6.40;5.85;;;;;21.00;99025.00;;;;2078701;28;20241;-46
2022/04/01 00:14:43;;;;;;;5.83;5.33;;;;;21.00;99029.00;;;;2078815;28;20716;-47
2022/04/01 00:15:44;;;;;;;6.17;5.70;;;;;21.00;99023.00;;;;2077961;28;20224;-47
2022/04/01 00:16:44;;;;;;;5.17;4.77;;;;;21.00;99025.00;;;;2078983;28;20222;-47
2022/04/01 00:17:44;;;;;;;5.87;5.47;;;;;21.00;99029.00;;;;2078606;28;20248;-47
2022/04/01 00:18:45;;;;;;;5.70;5.27;;;;;21.00;99026.00;;;;2078872;28;20670;-47
2022/04/01 00:19:45;;;;;;;5.30;4.93;;;;;21.00;99038.00;;;;2078932;28;20263;-47
2022/04/01 00:20:45;;;;;;;5.43;5.03;;;;;21.00;99030.00;;;;2078339;28;20591;-46
2022/04/01 00:21:47;;;;;;;5.50;5.10;;;;;21.00;99029.00;;;;2079009;28;20252;-47
2022/04/01 00:22:47;;;;;;;5.60;5.10;;;;;21.00;99026.00;;;;2078954;28;20223;-47
2022/04/01 00:23:47;;;;;;;5.30;4.90;;;;;21.00;99034.00;;;;2078760;28;20301;-47
2022/04/01 00:24:48;;;;;;;5.37;4.97;;;;;21.00;99034.00;;;;2078693;28;20240;-46
2022/04/01 00:25:48;;;;;;;4.80;4.40;;;;;20.90;99042.00;;;;2077085;28;20225;-46
2022/04/01 00:26:48;;;;;;;5.53;5.03;;;;;20.90;99037.00;;;;2078203;28;20215;-46
2022/04/01 00:27:50;;;;;;;4.87;4.47;;;;;20.90;99032.00;;;;2078526;28;20209;-47
2022/04/01 00:28:51;;;;;;;5.32;4.93;;;;;20.90;99036.00;;;;2078419;28;20224;-47
2022/04/01 00:29:51;;;;;;;4.63;4.30;;;;;20.90;99037.00;;;;2078721;28;20244;-48
2022/04/01 00:30:53;;;;;;;5.10;4.70;;;;;20.90;99037.00;;;;2078849;28;20205;-47
2022/04/01 00:31:58;;;;;;;5.40;5.00;;;;;20.90;99040.00;;;;2078377;28;20229;-47
2022/04/01 00:32:59;;;;;;;5.00;4.60;;;;;20.90;99032.00;;;;2078747;28;20210;-47
2022/04/01 00:34:15;;;;;;;5.43;5.03;;;;;20.90;99032.00;;;;2078447;28;20209;-47
2022/04/01 00:35:15;;;;;;;5.35;4.90;;;;;20.90;99044.00;;;;2078419;28;20836;-47
2022/04/01 00:36:15;;;;;;;5.30;4.90;;;;;20.90;99051.00;;;;2073054;28;20217;-46
2022/04/01 00:37:17;;;;;;;4.37;4.07;;;;;20.90;99051.00;;;;2070361;28;20225;-46
2022/04/01 00:38:17;;;;;;;5.10;4.70;;;;;20.70;99052.00;;;;2070775;28;21437;-47
2022/04/01 00:39:18;;;;;;;5.00;4.60;;;;;20.90;99044.00;;;;2070945;28;20301;-47
2022/04/01 00:40:20;;;;;;;5.05;4.65;;;;;20.90;99052.00;;;;2075178;28;20275;-46
2022/04/01 00:41:20;;;;;;;4.40;4.10;;;;;20.90;99050.00;;;;2072394;28;20843;-46
2022/04/01 00:42:21;;;;;;;5.00;4.60;;;;;20.90;99048.00;;;;2069978;28;21250;-47
2022/04/01 00:43:28;;;;;;;5.87;4.50;;;;;20.90;98917.00;;;;2070610;28;20605;-47
2022/04/01 00:44:31;;;;;;;4.78;4.38;;;;;20.90;99053.00;;;;2070354;28;20214;-47
2022/04/01 00:45:31;;;;;;;4.25;3.95;;;;;20.90;99062.00;;;;2069949;28;20272;-47
2022/04/01 00:46:32;;;;;;;4.67;4.30;;;;;20.90;99057.00;;;;2070554;28;20288;-47
2022/04/01 00:47:32;;;;;;;4.83;4.37;;;;;20.90;99054.00;;;;2069999;28;20496;-47
2022/04/01 00:48:32;;;;;;;4.53;4.23;;;;;20.90;99051.00;;;;2069045;28;20207;-48
2022/04/01 00:49:33;;;;;;;4.40;4.10;;;;;20.90;99057.00;;;;2070274;28;20264;-47
2022/04/01 00:50:34;;;;;;;4.00;3.70;;;;;20.90;99062.00;;;;2070641;28;20198;-47
2022/04/01 00:51:34;;;;;;;4.40;4.10;;;;;20.90;99055.00;;;;2070590;28;20297;-47
2022/04/01 00:52:35;;;;;;;4.57;4.17;;;;;20.90;99064.00;;;;2070002;28;20206;-47
2022/04/01 00:53:36;;;;;;;3.97;3.67;;;;;20.80;99061.00;;;;2069585;28;20206;-47
2022/04/01 00:54:36;;;;;;;3.90;3.60;;;;;20.80;99061.00;;;;2070602;28;20708;-47
2022/04/01 00:55:37;;;;;;;4.20;3.80;;;;;20.80;99059.00;;;;2069643;28;20577;-47
2022/04/01 00:56:37;;;;;;;4.10;3.80;;;;;20.90;99069.00;;;;2063558;28;20307;-47
2022/04/01 00:57:38;;;;;;;4.37;4.07;;;;;20.80;99065.00;;;;2068934;28;20218;-47
2022/04/01 00:58:38;;;;;;;4.00;3.70;;;;;20.80;99064.00;;;;2078676;28;20220;-47
2022/04/01 00:59:39;;;;;;;4.67;4.37;;;;;20.80;99070.00;;;;2073369;28;20206;-47
2022/04/01 01:00:39;;;;;;;3.80;3.50;;;;;20.90;99073.00;;;;2069972;28;20211;-47
2022/04/01 01:01:41;;;;;;;4.27;3.90;;;;;20.80;99064.00;;;;2070421;28;20939;-46
2022/04/01 01:02:41;;;;;;;4.50;4.10;;;;;20.80;99059.00;;;;2074056;28;20237;-47
2022/04/01 01:03:42;;;;;;;4.27;3.80;;;;;20.80;99071.00;;;;2078398;28;20213;-47
2022/04/01 01:04:44;;;;;;;3.70;3.50;;;;;20.80;99066.00;;;;2078319;28;20206;-47
2022/04/01 01:05:44;;;;;;;4.20;3.90;;;;;20.80;99066.00;;;;2077956;28;20210;-47
2022/04/01 01:06:46;;;;;;;4.13;3.83;;;;;20.80;99058.00;;;;2071628;28;20221;-47
2022/04/01 01:07:46;;;;;;;3.65;3.40;;;;;20.80;99065.00;;;;2074602;28;20239;-47
2022/04/01 01:08:48;;;;;;;4.47;4.17;;;;;20.80;99031.00;;;;2077689;28;20737;-47
2022/04/01 01:09:48;;;;;;;4.60;4.05;;;;;20.80;99058.00;;;;2069659;28;20221;-47
2022/04/01 01:10:48;;;;;;;4.20;3.90;;;;;20.80;99066.00;;;;2069836;28;20217;-47
2022/04/01 01:11:50;;;;;;;3.77;3.50;;;;;20.80;99065.00;;;;2069764;28;20218;-46
2022/04/01 01:12:51;;;;;;;3.72;3.50;;;;;20.80;99066.00;;;;2070464;28;20217;-47
2022/04/01 01:13:52;;;;;;;3.67;3.40;;;;;20.80;99056.00;;;;2070374;28;20225;-47
2022/04/01 01:14:53;;;;;;;4.30;3.90;;;;;20.80;99065.00;;;;2070459;28;20210;-47
2022/04/01 01:15:53;;;;;;;4.20;3.90;;;;;20.80;99071.00;;;;2070068;28;20210;-47
2022/04/01 01:16:53;;;;;;;3.80;3.50;;;;;20.80;99074.00;;;;2079981;28;20206;-47
2022/04/01 01:17:54;;;;;;;3.73;3.43;;;;;20.80;99075.00;;;;2080220;28;20224;-47
2022/04/01 01:19:07;;;;;;;3.90;3.60;;;;;20.80;99065.00;;;;2072778;28;20217;-48
2022/04/01 01:20:15;;;;;;;3.72;3.42;;;;;20.80;99069.00;;;;2077762;28;20224;-47
2022/04/01 01:21:15;;;;;;;3.42;3.22;;;;;20.80;99073.00;;;;2079351;28;20752;-47
2022/04/01 01:22:16;;;;;;;3.70;3.40;;;;;20.80;99070.00;;;;2079484;28;20308;-47
2022/04/01 01:23:16;;;;;;;3.63;3.33;;;;;20.80;99074.00;;;;2080111;28;20279;-47
2022/04/01 01:24:17;;;;;;;4.00;3.70;;;;;20.70;99069.00;;;;2078723;28;20241;-46
2022/04/01 01:25:18;;;;;;;3.67;3.38;;;;;20.70;99089.00;;;;2079210;28;20267;-47
2022/04/01 01:26:18;;;;;;;3.80;3.50;;;;;20.70;99073.00;;;;2073815;28;20690;-47
2022/04/01 01:27:20;;;;;;;3.50;3.20;;;;;20.70;99069.00;;;;2073296;28;20216;-47
2022/04/01 01:28:21;;;;;;;3.50;3.20;;;;;20.70;99073.00;;;;2080030;28;20440;-47
2022/04/01 01:29:23;;;;;;;3.47;3.20;;;;;20.70;99069.00;;;;2079345;28;20221;-47
2022/04/01 01:30:24;;;;;;;3.78;3.47;;;;;20.70;99072.00;;;;2079373;28;20266;-47
2022/04/01 01:31:25;;;;;;;3.83;3.53;;;;;20.70;99071.00;;;;2079792;28;20329;-47
2022/04/01 01:32:28;;;;;;;3.00;2.80;;;;;20.70;99065.00;;;;2076361;28;20256;-47
2022/04/01 01:33:28;;;;;;;3.80;3.50;;;;;20.70;99070.00;;;;2075993;28;20219;-52
2022/04/01 01:34:29;;;;;;;3.33;3.13;;;;;20.70;99074.00;;;;2080104;28;20592;-50
2022/04/01 01:35:29;;;;;;;3.80;3.50;;;;;20.70;99057.00;;;;2076468;28;20210;-48
2022/04/01 01:36:30;;;;;;;4.10;3.33;;;;;20.70;99052.00;;;;2071882;28;20221;-48
2022/04/01 01:37:31;;;;;;;3.57;3.27;;;;;20.70;99067.00;;;;2071524;28;20289;-48
2022/04/01 01:38:32;;;;;;;3.57;3.27;;;;;20.70;99072.00;;;;2071927;28;20221;-46
2022/04/01 01:39:32;;;;;;;3.80;3.50;;;;;20.70;99065.00;;;;2071785;28;20213;-48
2022/04/01 01:40:33;;;;;;;3.47;3.17;;;;;20.70;99062.00;;;;2070801;28;20234;-47
2022/04/01 01:41:33;;;;;;;3.10;2.90;;;;;20.70;99069.00;;;;2071145;28;20275;-47
2022/04/01 01:42:33;;;;;;;3.43;3.23;;;;;20.60;99069.00;;;;2077153;28;20214;-47
2022/04/01 01:43:34;;;;;;;4.10;3.53;;;;;20.70;99068.00;;;;2079968;28;20326;-47
2022/04/01 01:44:34;;;;;;;4.00;3.70;;;;;20.70;99073.00;;;;2079582;28;20724;-47
2022/04/01 01:45:35;;;;;;;3.40;3.20;;;;;20.70;99066.00;;;;2077646;28;20210;-47
2022/04/01 01:46:36;;;;;;;3.70;3.23;;;;;20.60;99068.00;;;;2071287;28;20241;-49
2022/04/01 01:47:36;;;;;;;3.87;3.57;;;;;20.70;99076.00;;;;2075108;28;20205;-47
2022/04/01 01:48:36;;;;;;;3.47;3.17;;;;;20.70;99073.00;;;;2071452;28;20461;-47
2022/04/01 01:49:37;;;;;;;3.53;3.23;;;;;20.70;99071.00;;;;2071094;28;20218;-46
2022/04/01 01:54:44;;;;;;;3.60;3.30;;;;;20.60;99060.00;;;;2076655;28;20209;-47
2022/04/01 01:55:45;;;;;;;3.53;3.22;;;;;20.60;99062.00;;;;2079148;28;20218;-47
2022/04/01 01:56:45;;;;;;;4.10;3.27;;;;;20.60;99066.00;;;;2079540;28;20214;-47
2022/04/01 01:57:45;;;;;;;4.00;3.60;;;;;20.60;99055.00;;;;2078798;28;20607;-47
2022/04/01 01:58:46;;;;;;;3.40;3.10;;;;;20.60;99068.00;;;;2070863;28;20214;-47
2022/04/01 01:59:47;;;;;;;3.60;3.30;;;;;20.60;99069.00;;;;2078740;28;20262;-47
2022/04/01 02:00:47;;;;;;;3.27;3.03;;;;;20.60;99074.00;;;;2079781;28;20202;-47
2022/04/01 02:01:47;;;;;;;4.07;3.60;;;;;20.60;99068.00;;;;2079483;28;20688;-47
2022/04/01 02:02:49;;;;;;;2.90;2.70;;;;;20.60;99067.00;;;;2079760;28;20586;-47
2022/04/01 02:03:52;;;;;;;3.47;3.17;;;;;20.60;99068.00;;;;2079643;28;20685;-47
2022/04/01 02:04:52;;;;;;;3.13;2.92;;;;;20.60;99073.00;;;;2079515;28;20289;-47
2022/04/01 02:05:52;;;;;;;3.20;2.90;;;;;20.60;99070.00;;;;2078967;28;20674;-47
2022/04/01 02:06:53;;;;;;;3.10;2.80;;;;;20.60;99065.00;;;;2079702;28;20954;-47
2022/04/01 02:07:53;;;;;;;3.03;2.83;;;;;20.60;99067.00;;;;2079640;28;20275;-47
2022/04/01 02:08:54;;;;;;;2.73;2.53;;;;;20.60;99067.00;;;;2079433;28;20217;-47
2022/04/01 02:09:54;;;;;;;3.73;3.00;;;;;20.60;99078.00;;;;2071586;28;20225;-47
2022/04/01 02:10:54;;;;;;;3.97;3.10;;;;;20.60;99066.00;;;;2071510;28;20210;-47
2022/04/01 02:11:55;;;;;;;3.00;2.80;;;;;20.60;99068.00;;;;2071634;28;20352;-49
2022/04/01 02:12:55;;;;;;;3.50;3.20;;;;;20.60;99069.00;;;;2075047;28;20213;-47
2022/04/01 02:13:55;;;;;;;3.10;2.90;;;;;20.60;99064.00;;;;2079356;28;20224;-47
2022/04/01 02:14:56;;;;;;;3.00;2.80;;;;;20.60;99068.00;;;;2074612;28;20226;-47
2022/04/01 02:15:56;;;;;;;3.30;3.03;;;;;20.60;99072.00;;;;2070366;28;20305;-47
2022/04/01 02:16:57;;;;;;;2.77;2.57;;;;;20.60;99088.00;;;;2078229;28;20217;-47
2022/04/01 02:17:58;;;;;;;2.90;2.70;;;;;20.60;99061.00;;;;2079521;28;21065;-47
2022/04/01 02:18:59;;;;;;;2.97;2.67;;;;;20.60;99076.00;;;;2073834;28;20225;-47
2022/04/01 02:19:59;;;;;;;3.30;3.00;;;;;20.60;99060.00;;;;2074008;28;20275;-47
2022/04/01 02:21:00;;;;;;;3.03;2.73;;;;;20.60;99063.00;;;;2075962;28;20229;-47
2022/04/01 02:22:01;;;;;;;3.20;2.90;;;;;20.60;99058.00;;;;2071949;28;20214;-47
2022/04/01 02:23:01;;;;;;;2.78;2.58;;;;;20.50;99063.00;;;;2079654;28;20217;-47
2022/04/01 02:24:02;;;;;;;2.70;2.50;;;;;20.50;99069.00;;;;2079538;28;20664;-47
2022/04/01 02:25:04;;;;;;;3.00;2.70;;;;;20.50;99064.00;;;;2070396;28;20345;-47
2022/04/01 02:26:05;;;;;;;3.42;2.75;;;;;20.50;99066.00;;;;2070093;28;20226;-47
2022/04/01 02:27:05;;;;;;;2.90;2.70;;;;;20.50;99063.00;;;;2078795;28;20234;-47
2022/04/01 02:28:05;;;;;;;2.97;2.70;;;;;20.50;99071.00;;;;2079257;28;20210;-47
2022/04/01 02:29:08;;;;;;;2.40;2.20;;;;;20.50;99066.00;;;;2072401;28;20725;-47
2022/04/01 02:30:12;;;;;;;2.80;2.60;;;;;20.50;99058.00;;;;2071273;28;20301;-47
2022/04/01 02:31:14;;;;;;;3.05;2.85;;;;;20.50;99077.00;;;;2071415;28;20752;-47
2022/04/01 02:32:16;;;;;;;3.50;2.60;;;;;20.50;99065.00;;;;2071473;28;20226;-47
2022/04/01 02:33:16;;;;;;;3.00;2.80;;;;;20.50;99075.00;;;;2070174;28;20329;-47
2022/04/01 02:34:17;;;;;;;3.20;2.90;;;;;20.50;99063.00;;;;2071219;28;20230;-47
2022/04/01 02:35:18;;;;;;;2.55;2.35;;;;;20.50;99075.00;;;;2071128;28;20252;-47
2022/04/01 02:36:18;;;;;;;2.70;2.50;;;;;20.50;99071.00;;;;2071212;28;20222;-47
2022/04/01 02:37:20;;;;;;;2.57;2.37;;;;;20.50;99075.00;;;;2071192;28;20238;-47
2022/04/01 02:38:21;;;;;;;2.58;2.38;;;;;20.50;99080.00;;;;2071170;28;20309;-47
2022/04/01 02:39:21;;;;;;;2.90;2.60;;;;;20.50;99074.00;;;;2069853;28;20237;-47
2022/04/01 02:40:22;;;;;;;2.80;2.60;;;;;20.50;99083.00;;;;2071311;28;20280;-47
2022/04/01 02:41:22;;;;;;;2.37;2.17;;;;;20.50;99084.00;;;;2070643;28;20218;-47
2022/04/01 02:42:22;;;;;;;2.50;2.30;;;;;20.50;99085.00;;;;2070706;28;20736;-47
2022/04/01 02:43:23;;;;;;;2.50;2.30;;;;;20.50;99085.00;;;;2074935;28;21182;-47
2022/04/01 02:44:23;;;;;;;2.83;2.60;;;;;20.50;99088.00;;;;2071187;28;20242;-47
2022/04/01 02:45:24;;;;;;;2.33;2.13;;;;;20.50;99095.00;;;;2069091;28;20228;-47
2022/04/01 02:46:24;;;;;;;2.40;2.20;;;;;20.50;99108.00;;;;2070936;28;20690;-48
2022/04/01 02:47:25;;;;;;;2.63;2.43;;;;;20.50;99088.00;;;;2070814;28;20729;-47
2022/04/01 02:48:25;;;;;;;2.20;2.10;;;;;20.40;99072.00;;;;2070223;28;20250;-47
2022/04/01 02:49:25;;;;;;;2.30;2.10;;;;;20.40;99092.00;;;;2069208;28;20225;-47
2022/04/01 02:50:26;;;;;;;2.57;2.10;;;;;20.50;99099.00;;;;2070773;28;20589;-47
2022/04/01 02:51:26;;;;;;;2.80;2.60;;;;;20.50;99093.00;;;;2070830;28;20222;-47
2022/04/01 02:52:27;;;;;;;2.50;2.30;;;;;20.50;99102.00;;;;2069986;28;20229;-47
2022/04/01 02:53:27;;;;;;;2.97;2.40;;;;;20.40;99102.00;;;;2070709;28;20313;-46
2022/04/01 02:54:29;;;;;;;2.20;2.00;;;;;20.40;99105.00;;;;2070341;28;20831;-47
2022/04/01 02:55:29;;;;;;;2.20;2.00;;;;;20.50;99102.00;;;;2075366;28;20701;-47
2022/04/01 02:56:32;;;;;;;2.20;2.00;;;;;20.50;99108.00;;;;2078569;28;20225;-47
2022/04/01 02:57:33;;;;;;;2.40;2.20;;;;;20.50;99105.00;;;;2069799;28;20222;-47
2022/04/01 02:58:34;;;;;;;2.28;2.08;;;;;20.40;99100.00;;;;2069961;28;20301;-47
2022/04/01 02:59:35;;;;;;;2.07;1.90;;;;;20.40;99103.00;;;;2078804;28;20213;-47
2022/04/01 03:00:37;;;;;;;1.95;1.67;;;;;20.40;99109.00;;;;2078159;28;20468;-47
2022/04/01 03:01:41;;;;;;;2.35;2.15;;;;;20.40;99105.00;;;;2078682;28;20617;-47
2022/04/01 03:02:41;;;;;;;2.30;2.10;;;;;20.40;99098.00;;;;2079113;28;20627;-53
2022/04/01 03:03:41;;;;;;;1.80;1.70;;;;;20.40;99105.00;;;;2079074;28;20214;-48
2022/04/01 03:04:42;;;;;;;2.20;2.00;;;;;20.40;99115.00;;;;2079117;28;20208;-48
2022/04/01 03:05:43;;;;;;;2.20;1.90;;;;;20.40;99118.00;;;;2071081;28;20244;-47
2022/04/01 03:06:43;;;;;;;1.90;1.50;;;;;20.40;99118.00;;;;2074119;28;20206;-47
2022/04/01 03:07:44;;;;;;;2.70;2.17;;;;;20.40;99116.00;;;;2071011;28;20218;-48
2022/04/01 03:08:45;;;;;;;2.20;2.00;;;;;20.40;99121.00;;;;2070980;28;20702;-47
2022/04/01 03:09:45;;;;;;;2.30;2.10;;;;;20.40;99118.00;;;;2071023;28;20242;-47
2022/04/01 03:10:46;;;;;;;1.80;1.70;;;;;20.40;99121.00;;;;2071060;28;20214;-47
2022/04/01 03:11:46;;;;;;;2.20;2.10;;;;;20.40;99125.00;;;;2066606;28;20228;-47
2022/04/01 03:12:46;;;;;;;2.60;2.30;;;;;20.40;99116.00;;;;2078646;28;20771;-47
2022/04/01 03:13:47;;;;;;;2.07;1.97;;;;;20.40;99123.00;;;;2082396;28;20701;-47
2022/04/01 03:14:48;;;;;;;2.30;2.10;;;;;20.40;99117.00;;;;2078987;28;20302;-47
2022/04/01 03:15:48;;;;;;;1.80;1.70;;;;;20.40;99115.00;;;;2078499;28;20217;-47
2022/04/01 03:16:49;;;;;;;1.90;1.80;;;;;20.40;99121.00;;;;2078835;28;20209;-47
2022/04/01 03:17:49;;;;;;;2.20;1.80;;;;;20.40;99125.00;;;;2079105;28;20225;-47
2022/04/01 03:18:50;;;;;;;1.70;1.60;;;;;20.40;99125.00;;;;2079113;28;20263;-47
2022/04/01 03:19:50;;;;;;;1.97;1.87;;;;;20.40;99135.00;;;;2079220;28;20214;-47
2022/04/01 03:20:50;;;;;;;2.70;2.23;;;;;20.40;99122.00;;;;2079111;28;20248;-47
2022/04/01 03:21:51;;;;;;;2.00;1.80;;;;;20.40;99122.00;;;;2078679;28;20259;-47
2022/04/01 03:22:51;;;;;;;1.60;1.50;;;;;20.40;99140.00;;;;2078226;28;20221;-47
2022/04/01 03:23:52;;;;;;;1.50;1.40;;;;;20.40;99127.00;;;;2070250;28;20210;-47
2022/04/01 03:24:52;;;;;;;2.07;1.90;;;;;20.40;99134.00;;;;2070223;28;20216;-47
2022/04/01 03:25:53;;;;;;;1.90;1.70;;;;;20.40;99134.00;;;;2073749;28;20666;-47
2022/04/01 03:26:53;;;;;;;1.67;1.57;;;;;20.40;99143.00;;;;2069254;28;20639;-47
2022/04/01 03:27:53;;;;;;;1.93;1.83;;;;;20.40;99140.00;;;;2061960;28;20231;-47
2022/04/01 03:28:55;;;;;;;1.60;1.50;;;;;20.40;99138.00;;;;2070065;28;20209;-47
2022/04/01 03:29:55;;;;;;;1.83;1.73;;;;;20.40;99141.00;;;;2070001;28;20203;-47
2022/04/01 03:30:56;;;;;;;1.80;1.70;;;;;20.40;99140.00;;;;2070889;28;20214;-47
2022/04/01 03:31:56;;;;;;;1.93;1.73;;;;;20.30;99138.00;;;;2072632;28;20209;-47
2022/04/01 03:32:56;;;;;;;2.00;1.90;;;;;20.30;99133.00;;;;2079024;28;20852;-47
2022/04/01 03:33:57;;;;;;;1.87;1.60;;;;;20.40;99146.00;;;;2071877;28;20656;-47
2022/04/01 03:34:57;;;;;;;1.60;1.50;;;;;20.30;99146.00;;;;2070937;28;20341;-47
2022/04/01 03:35:58;;;;;;;1.80;1.70;;;;;20.30;99148.00;;;;2070230;28;20218;-47
2022/04/01 03:36:58;;;;;;;1.60;1.50;;;;;20.30;99147.00;;;;2074561;28;20268;-47
2022/04/01 03:37:59;;;;;;;2.07;1.87;;;;;20.30;99149.00;;;;2070002;28;20876;-47
2022/04/01 03:38:59;;;;;;;1.83;1.73;;;;;20.30;99148.00;;;;2061353;28;20239;-47
2022/04/01 03:40:00;;;;;;;1.90;1.80;;;;;20.30;99150.00;;;;2070196;28;20264;-47
2022/04/01 03:41:01;;;;;;;1.42;1.33;;;;;20.30;99150.00;;;;2070929;28;20230;-47
2022/04/01 03:42:06;;;;;;;1.57;1.47;;;;;20.30;99158.00;;;;2073203;28;20244;-47
2022/04/01 03:43:06;;;;;;;1.95;1.50;;;;;20.30;99155.00;;;;2079222;28;20447;-47
2022/04/01 03:44:09;;;;;;;1.70;1.60;;;;;20.30;99154.00;;;;2078944;28;20213;-47
2022/04/01 03:45:09;;;;;;;1.95;1.85;;;;;20.30;99155.00;;;;2078885;28;20217;-47
2022/04/01 03:46:14;;;;;;;2.17;1.97;;;;;20.30;99149.00;;;;2078080;28;20232;-47
2022/04/01 03:47:18;;;;;;;1.65;1.55;;;;;20.30;99156.00;;;;2078548;28;20522;-47
2022/04/01 03:48:31;;;;;;;1.90;1.77;;;;;20.30;99175.00;;;;2077692;28;20705;-48
2022/04/01 03:49:33;;;;;;;1.95;1.83;;;;;20.30;99160.00;;;;2071576;28;20248;-47
2022/04/01 03:50:34;;;;;;;4.20;2.08;;;;;20.30;99156.00;;;;2071845;28;20220;-47
2022/04/01 03:51:34;;;;;;;1.80;1.70;;;;;20.20;99158.00;;;;2074690;28;20209;-47
2022/04/01 03:52:34;;;;;;;1.60;1.50;;;;;20.30;99156.00;;;;2073607;28;20928;-47
2022/04/01 03:53:35;;;;;;;1.70;1.60;;;;;20.30;99165.00;;;;2061743;28;20218;-46
2022/04/01 03:54:35;;;;;;;1.70;1.60;;;;;20.30;99165.00;;;;2070218;28;20301;-47
2022/04/01 03:55:37;;;;;;;1.63;1.53;;;;;20.30;99166.00;;;;2061179;28;20211;-47
2022/04/01 03:56:37;;;;;;;1.80;1.70;;;;;20.30;99166.00;;;;2066775;28;20222;-47
2022/04/01 03:57:39;;;;;;;1.77;1.63;;;;;20.30;99168.00;;;;2076865;28;20240;-47
2022/04/01 03:58:40;;;;;;;2.00;1.80;;;;;20.30;99183.00;;;;2070062;28;20224;-47
2022/04/01 03:59:44;;;;;;;2.20;2.00;;;;;20.20;99165.00;;;;2061135;28;20211;-47
2022/04/01 04:00:45;;;;;;;1.70;1.60;;;;;20.20;99174.00;;;;2070594;28;20242;-46
2022/04/01 04:01:45;;;;;;;2.17;1.97;;;;;20.20;99170.00;;;;2078265;28;20674;-47
2022/04/01 04:02:46;;;;;;;2.07;1.87;;;;;20.20;99173.00;;;;2078629;28;20703;-46
2022/04/01 04:03:48;;;;;;;2.67;2.10;;;;;20.30;99173.00;;;;2078538;28;20217;-47
2022/04/01 04:04:50;;;;;;;2.00;1.70;;;;;20.30;99168.00;;;;2073351;28;20214;-47
2022/04/01 04:05:50;;;;;;;1.98;1.80;;;;;20.20;99163.00;;;;2060864;28;20218;-46
2022/04/01 04:06:51;;;;;;;2.20;1.90;;;;;20.20;99183.00;;;;2062001;28;20230;-48
2022/04/01 04:07:52;;;;;;;2.23;2.03;;;;;20.20;99186.00;;;;2065498;28;20310;-47
2022/04/01 04:08:57;;;;;;;1.93;1.73;;;;;20.20;99181.00;;;;2069995;28;20206;-47
2022/04/01 04:09:58;;;;;;;1.70;1.58;;;;;20.20;99184.00;;;;2070762;28;20210;-47
2022/04/01 04:10:58;;;;;;;2.10;1.90;;;;;20.20;99176.00;;;;2070405;28;20225;-47
2022/04/01 04:11:59;;;;;;;1.90;1.80;;;;;20.20;99166.00;;;;2070794;28;20536;-47
2022/04/01 04:12:59;;;;;;;2.00;1.77;;;;;20.20;99192.00;;;;2053598;28;20282;-47
2022/04/01 04:14:01;;;;;;;2.13;1.90;;;;;20.20;99184.00;;;;2053937;28;20222;-47
2022/04/01 04:15:01;;;;;;;1.83;1.73;;;;;20.20;99177.00;;;;2077950;28;20233;-47
2022/04/01 04:16:14;;;;;;;1.70;1.60;;;;;20.20;99181.00;;;;2070241;28;20237;-47
2022/04/01 04:17:14;;;;;;;1.83;1.65;;;;;20.30;99186.00;;;;2070467;28;20234;-47
2022/04/01 04:18:15;;;;;;;2.20;1.80;;;;;20.20;99191.00;;;;2069915;28;20237;-47
2022/04/01 04:19:21;;;;;;;1.77;1.60;;;;;20.20;99187.00;;;;2061915;28;20302;-47
2022/04/01 04:20:34;;;;;;;2.40;1.75;;;;;20.20;99189.00;;;;2055380;28;20542;-47
2022/04/01 04:21:55;;;;;;;1.63;1.52;;;;;20.20;99189.00;;;;2070041;28;20599;-47
2022/04/01 04:23:04;;;;;;;2.13;1.90;;;;;20.20;99198.00;;;;2073789;28;20303;-47
2022/04/01 04:24:05;;;;;;;1.77;1.48;;;;;20.20;99186.00;;;;2078204;28;20218;-47
2022/04/01 04:25:10;;;;;;;1.77;1.67;;;;;20.20;99189.00;;;;2069796;28;20206;-47
2022/04/01 04:26:15;;;;;;;1.63;1.52;;;;;20.20;99188.00;;;;2070526;28;20218;-47
2022/04/01 04:27:16;;;;;;;2.03;1.70;;;;;20.20;99180.00;;;;2084612;28;20220;-47
2022/04/01 04:28:18;;;;;;;1.87;1.77;;;;;20.20;99190.00;;;;2077870;28;20240;-47
2022/04/01 04:29:18;;;;;;;2.08;1.80;;;;;20.20;99191.00;;;;2070035;28;20218;-47
2022/04/01 04:30:19;;;;;;;1.70;1.50;;;;;20.20;99199.00;;;;2077991;28;20299;-47
2022/04/01 04:31:26;;;;;;;2.20;1.87;;;;;20.20;99197.00;;;;2078791;28;20213;-47
2022/04/01 04:32:40;;;;;;;1.80;1.70;;;;;20.20;99201.00;;;;2078513;28;20217;-48
2022/04/01 04:33:45;;;;;;;1.60;1.50;;;;;20.20;99195.00;;;;2077569;28;21088;-47
2022/04/01 04:34:45;;;;;;;1.90;1.80;;;;;20.20;99202.00;;;;2077983;28;20787;-47
2022/04/01 04:35:48;;;;;;;1.50;1.40;;;;;20.10;99216.00;;;;2077222;28;20245;-47
2022/04/01 04:36:49;;;;;;;1.60;1.50;;;;;20.20;99199.00;;;;2070052;28;20217;-47
2022/04/01 04:37:49;;;;;;;2.60;2.10;;;;;20.20;99192.00;;;;2069603;28;20213;-47
2022/04/01 04:38:50;;;;;;;1.50;1.40;;;;;20.10;99208.00;;;;2061349;28;20538;-47
2022/04/01 04:39:50;;;;;;;1.43;1.33;;;;;20.10;99214.00;;;;2069936;28;20666;-47
2022/04/01 04:40:52;;;;;;;1.37;1.23;;;;;20.20;99212.00;;;;2069621;28;20308;-47
2022/04/01 04:41:52;;;;;;;2.00;1.40;;;;;20.10;99209.00;;;;2077339;28;20223;-47
2022/04/01 04:42:53;;;;;;;1.70;1.60;;;;;20.10;99213.00;;;;2061785;28;20710;-47
2022/04/01 04:43:53;;;;;;;1.80;1.70;;;;;20.10;99224.00;;;;2060780;28;20211;-47
2022/04/01 04:44:54;;;;;;;1.70;1.57;;;;;20.20;99217.00;;;;2069279;28;20842;-47
2022/04/01 04:45:56;;;;;;;1.60;1.50;;;;;20.20;99214.00;;;;2068239;28;20278;-47
2022/04/01 04:46:57;;;;;;;1.70;1.60;;;;;20.10;99220.00;;;;2069789;28;20214;-47
2022/04/01 04:47:58;;;;;;;1.70;1.58;;;;;20.10;99219.00;;;;2077848;28;20982;-47
2022/04/01 04:48:58;;;;;;;1.87;1.70;;;;;20.10;99213.00;;;;2075795;28;20233;-47
2022/04/01 04:49:58;;;;;;;1.70;1.60;;;;;20.20;99218.00;;;;2070192;28;20240;-47
2022/04/01 04:51:02;;;;;;;1.93;1.83;;;;;20.10;99231.00;;;;2070415;28;20297;-47
2022/04/01 04:52:03;;;;;;;1.75;1.65;;;;;20.20;99223.00;;;;2069977;28;20252;-47
2022/04/01 04:53:03;;;;;;;1.87;1.67;;;;;20.10;99202.00;;;;2069842;28;20518;-47
2022/04/01 04:54:03;;;;;;;1.80;1.70;;;;;20.10;99223.00;;;;2061519;28;20794;-47
2022/04/01 04:55:07;;;;;;;2.00;1.80;;;;;20.10;99224.00;;;;2061641;28;20983;-47
2022/04/01 04:56:08;;;;;;;1.70;1.60;;;;;20.10;99235.00;;;;2068610;28;20699;-47
2022/04/01 04:57:09;;;;;;;3.38;1.80;;;;;20.10;99221.00;;;;2069783;28;20221;-46
2022/04/01 04:58:09;;;;;;;1.80;1.70;;;;;20.10;99227.00;;;;2061554;28;20246;-47
2022/04/01 04:59:10;;;;;;;1.80;1.70;;;;;20.10;99232.00;;;;2065900;28;20220;-47
2022/04/01 05:00:11;;;;;;;1.70;1.60;;;;;20.10;99230.00;;;;2078088;28;20796;-46
2022/04/01 05:01:50;;;;;;;2.75;1.70;;;;;20.10;99226.00;;;;2072740;28;20226;-46
2022/04/01 05:03:13;;;;;;;2.28;1.90;;;;;20.10;99236.00;;;;2067052;28;20279;-47
2022/04/01 05:04:39;;;;;;;1.83;1.70;;;;;20.10;99235.00;;;;2066811;28;20213;-47
2022/04/01 05:05:46;;;;;;;1.70;1.60;;;;;20.10;99235.00;;;;2066625;28;20279;-47
2022/04/01 05:06:55;;;;;;;2.25;2.05;;;;;20.20;99230.00;;;;2077502;28;20216;-47
2022/04/01 05:08:28;;;;;;;1.77;1.67;;;;;20.20;99238.00;;;;2077657;28;20720;-47
2022/04/01 05:10:00;;;;;;;1.45;1.35;;;;;20.20;99249.00;;;;2073150;28;20233;-52
2022/04/01 05:11:14;;;;;;;1.88;1.77;;;;;20.20;99241.00;;;;2071243;28;20240;-47
2022/04/01 05:12:19;;;;;;;1.40;1.30;;;;;20.20;99250.00;;;;2070046;28;20244;-46
2022/04/01 05:13:42;;;;;;;1.50;1.40;;;;;20.30;99245.00;;;;2069006;28;20211;-46
2022/04/01 05:14:52;;;;;;;1.80;1.70;;;;;20.20;99244.00;;;;2063779;28;20217;-47